createdAt,value
2022-11-03T00:01:59.217Z,12.90
2022-11-03T00:04:26.187Z,10.87
2022-11-03T00:06:54.858Z,11.15
2022-11-03T00:09:23.494Z,11.35
2022-11-03T00:11:51.699Z,11.73
2022-11-03T00:14:19.753Z,13.03
2022-11-03T00:16:46.736Z,11.03
2022-11-03T00:19:17.443Z,15.00
2022-11-03T00:21:45.390Z,14.30
2022-11-03T00:24:13.145Z,10.50
2022-11-03T00:26:40.200Z,9.60
2022-11-03T00:29:11.687Z,11.93
2022-11-03T00:31:41.144Z,12.50
2022-11-03T00:34:08.604Z,15.38
2022-11-03T00:36:42.756Z,13.53
2022-11-03T00:39:10.640Z,15.57
2022-11-03T00:41:38.335Z,12.73
2022-11-03T00:44:05.420Z,8.52
2022-11-03T00:46:35.384Z,12.57
2022-11-03T00:49:05.970Z,16.90
2022-11-03T00:51:34.976Z,9.23
2022-11-03T00:54:04.625Z,8.90
2022-11-03T00:56:40.437Z,11.53
2022-11-03T00:59:09.356Z,8.93
2022-11-03T01:01:46.748Z,8.37
2022-11-03T01:04:35.179Z,9.43
2022-11-03T01:07:04.904Z,12.77
2022-11-03T01:09:34.700Z,10.97
2022-11-03T01:12:16.102Z,11.33
2022-11-03T01:14:52.234Z,13.43
2022-11-03T01:17:23.478Z,9.10
2022-11-03T01:19:51.005Z,10.17
2022-11-03T01:22:18.997Z,9.13
2022-11-03T01:24:46.271Z,15.30
2022-11-03T01:27:17.253Z,7.77
2022-11-03T01:29:44.480Z,12.57
2022-11-03T01:32:12.472Z,12.03
2022-11-03T01:34:39.763Z,11.30
2022-11-03T01:37:06.950Z,13.87
2022-11-03T01:39:33.788Z,9.73
2022-11-03T01:42:00.848Z,18.30
2022-11-03T01:44:36.591Z,16.87
2022-11-03T01:47:12.565Z,13.93
2022-11-03T01:50:00.999Z,16.83
2022-11-03T01:52:37.648Z,13.57
2022-11-03T01:55:11.271Z,18.67
2022-11-03T01:58:02.873Z,12.73
2022-11-03T02:00:29.956Z,16.33
2022-11-03T02:02:57.046Z,15.83
2022-11-03T02:05:25.954Z,16.33
2022-11-03T02:08:06.560Z,14.73
2022-11-03T02:10:33.902Z,18.57
2022-11-03T02:13:02.397Z,15.87
2022-11-03T02:15:30.583Z,17.97
2022-11-03T02:17:58.099Z,23.07
2022-11-03T02:20:29.839Z,16.53
2022-11-03T02:23:29.416Z,15.53
2022-11-03T02:25:59.056Z,15.50
2022-11-03T02:28:29.976Z,18.47
2022-11-03T02:31:29.528Z,16.63
2022-11-03T02:34:26.255Z,14.93
2022-11-03T02:37:32.099Z,18.43
2022-11-03T02:40:06.166Z,15.10
2022-11-03T02:42:35.685Z,17.20
2022-11-03T02:45:08.598Z,18.33
2022-11-03T02:47:39.316Z,19.87
2022-11-03T02:50:10.431Z,19.23
2022-11-03T02:52:44.896Z,21.77
2022-11-03T02:55:27.674Z,18.23
2022-11-03T02:58:08.164Z,19.13
2022-11-03T03:00:47.873Z,14.40
2022-11-03T03:03:29.036Z,17.27
2022-11-03T03:06:03.659Z,29.13
2022-11-03T03:08:31.240Z,15.20
2022-11-03T03:11:01.382Z,17.43
2022-11-03T03:13:28.345Z,16.43
2022-11-03T03:16:03.978Z,13.73
2022-11-03T03:18:49.102Z,18.90
2022-11-03T03:21:24.647Z,14.27
2022-11-03T03:24:00.233Z,19.30
2022-11-03T03:26:34.116Z,18.70
2022-11-03T03:29:10.090Z,19.77
2022-11-03T03:31:42.104Z,19.37
2022-11-03T03:34:31.492Z,16.70
2022-11-03T03:36:59.841Z,19.70
2022-11-03T03:39:30.798Z,14.90
2022-11-03T03:41:59.886Z,13.33
2022-11-03T03:44:27.847Z,21.57
2022-11-03T03:47:16.197Z,16.97
2022-11-03T03:49:43.465Z,14.30
2022-11-03T03:52:10.476Z,14.97
2022-11-03T03:54:37.307Z,18.80
2022-11-03T03:57:07.007Z,12.93
2022-11-03T03:59:34.048Z,17.00
2022-11-03T04:02:01.100Z,13.27
2022-11-03T04:04:28.124Z,15.23
2022-11-03T04:07:15.039Z,14.90
2022-11-03T04:09:41.938Z,17.33
2022-11-03T04:12:27.854Z,12.47
2022-11-03T04:15:13.035Z,16.73
2022-11-03T04:18:05.137Z,14.57
2022-11-03T04:20:51.372Z,18.23
2022-11-03T04:23:18.679Z,23.90
2022-11-03T04:25:53.360Z,31.30
2022-11-03T04:28:20.304Z,23.87
2022-11-03T04:30:47.618Z,21.37
2022-11-03T04:33:20.143Z,23.67
2022-11-03T04:35:48.326Z,22.43
2022-11-03T04:38:15.040Z,25.67
2022-11-03T04:40:54.851Z,35.40
2022-11-03T04:43:30.514Z,52.73
2022-11-03T04:45:57.541Z,40.27
2022-11-03T04:48:27.345Z,31.50
2022-11-03T04:50:59.456Z,24.87
2022-11-03T04:53:33.164Z,20.63
2022-11-03T04:56:06.134Z,44.63
2022-11-03T04:58:35.926Z,27.40
2022-11-03T05:01:04.263Z,27.47
2022-11-03T05:03:34.720Z,23.17
2022-11-03T05:06:31.224Z,21.83
2022-11-03T05:09:13.140Z,25.53
2022-11-03T05:11:44.398Z,20.17
2022-11-03T05:14:20.073Z,24.43
2022-11-03T05:16:49.542Z,28.80
2022-11-03T05:19:24.552Z,29.33
2022-11-03T05:21:54.989Z,34.50
2022-11-03T05:24:25.962Z,34.70
2022-11-03T05:26:56.182Z,28.90
2022-11-03T05:29:35.467Z,31.00
2022-11-03T05:32:02.431Z,28.10
2022-11-03T05:34:41.307Z,33.70
2022-11-03T05:37:27.510Z,27.77
2022-11-03T05:40:15.247Z,23.13
2022-11-03T05:42:45.313Z,21.83
2022-11-03T05:45:23.547Z,23.23
2022-11-03T05:47:56.717Z,21.80
2022-11-03T05:50:27.152Z,22.40
2022-11-03T05:53:21.801Z,19.63
2022-11-03T05:55:48.651Z,23.80
2022-11-03T05:58:37.483Z,27.03
2022-11-03T06:01:12.708Z,19.70
2022-11-03T06:03:40.152Z,19.10
2022-11-03T06:06:29.350Z,19.00
2022-11-03T06:09:03.757Z,17.73
2022-11-03T06:11:36.920Z,19.37
2022-11-03T06:14:26.518Z,13.43
2022-11-03T06:16:57.230Z,22.07
2022-11-03T06:19:36.040Z,19.37
2022-11-03T06:22:24.647Z,18.13
2022-11-03T06:24:56.556Z,19.33
2022-11-03T06:27:24.693Z,15.73
2022-11-03T06:30:19.088Z,19.43
2022-11-03T06:32:46.322Z,17.30
2022-11-03T06:35:14.635Z,19.00
2022-11-03T06:37:42.799Z,21.43
2022-11-03T06:40:09.477Z,13.97
2022-11-03T06:42:38.742Z,18.27
2022-11-03T06:45:21.814Z,27.67
2022-11-03T06:47:49.036Z,16.43
2022-11-03T06:50:29.930Z,19.87
2022-11-03T06:52:58.547Z,20.43
2022-11-03T06:55:34.535Z,25.20
2022-11-03T06:58:30.229Z,22.47
2022-11-03T07:01:03.727Z,16.80
2022-11-03T07:03:37.974Z,23.93
2022-11-03T07:06:10.908Z,17.27
2022-11-03T07:08:42.456Z,15.87
2022-11-03T07:11:21.575Z,16.50
2022-11-03T07:13:57.096Z,14.47
2022-11-03T07:16:34.961Z,14.70
2022-11-03T07:19:06.575Z,17.80
2022-11-03T07:21:45.801Z,18.07
2022-11-03T07:24:27.826Z,17.93
2022-11-03T07:27:15.669Z,17.53
2022-11-03T07:29:44.513Z,23.83
2022-11-03T07:32:21.599Z,14.97
2022-11-03T07:34:52.567Z,17.57
2022-11-03T07:37:23.365Z,17.87
2022-11-03T07:39:51.278Z,16.30
2022-11-03T07:42:22.186Z,17.00
2022-11-03T07:44:52.703Z,22.60
2022-11-03T07:47:22.523Z,18.50
2022-11-03T07:49:49.390Z,17.27
2022-11-03T07:52:24.575Z,20.37
2022-11-03T07:54:55.090Z,13.13
2022-11-03T07:57:26.929Z,16.33
2022-11-03T07:59:59.145Z,24.33
2022-11-03T08:02:36.851Z,17.07
2022-11-03T08:05:05.066Z,16.60
2022-11-03T08:07:32.665Z,17.30
2022-11-03T08:09:59.532Z,13.10
2022-11-03T08:12:26.450Z,17.53
2022-11-03T08:14:53.424Z,11.93
2022-11-03T08:17:20.335Z,16.27
2022-11-03T08:19:47.163Z,17.57
2022-11-03T08:22:14.001Z,24.30
2022-11-03T08:24:40.816Z,17.50
2022-11-03T08:27:08.511Z,15.43
2022-11-03T08:29:35.350Z,14.20
2022-11-03T08:32:02.336Z,12.83
2022-11-03T08:34:29.173Z,11.53
2022-11-03T08:36:56.004Z,13.13
2022-11-03T08:39:23.005Z,10.87
2022-11-03T08:41:49.830Z,19.03
2022-11-03T08:44:16.727Z,12.87
2022-11-03T08:46:43.564Z,10.30
2022-11-03T08:49:10.415Z,13.73
2022-11-03T08:51:43.036Z,12.13
2022-11-03T08:54:11.159Z,13.00
2022-11-03T08:56:37.999Z,15.13
2022-11-03T08:59:04.798Z,16.43
2022-11-03T09:01:31.738Z,15.30
2022-11-03T09:03:58.703Z,13.67
2022-11-03T09:06:25.617Z,18.50
2022-11-03T09:11:42.735Z,11.33
2022-11-03T09:14:09.621Z,14.43
2022-11-03T09:17:14.020Z,16.92
2022-11-03T09:19:40.869Z,14.07
2022-11-03T09:22:07.718Z,15.05
2022-11-03T09:24:34.553Z,10.15
2022-11-03T09:27:02.487Z,12.07
2022-11-03T09:29:36.373Z,14.20
2022-11-03T09:32:12.656Z,13.57
2022-11-03T09:34:39.546Z,9.35
2022-11-03T09:37:06.378Z,7.13
2022-11-03T09:39:33.413Z,12.18
2022-11-03T09:42:01.004Z,11.52
2022-11-03T09:44:27.980Z,14.40
2022-11-03T09:46:58.259Z,6.97
2022-11-03T09:49:28.499Z,8.77
2022-11-03T09:51:55.852Z,11.82
2022-11-03T09:54:22.835Z,11.60
2022-11-03T09:56:52.880Z,8.65
2022-11-03T09:59:23.751Z,9.80
2022-11-03T10:01:53.584Z,18.73
2022-11-03T10:04:27.428Z,15.48
2022-11-03T10:15:52.021Z,15.60
2022-11-03T10:18:19.112Z,13.57
2022-11-03T10:20:46.103Z,13.00
2022-11-03T10:23:12.932Z,13.10
2022-11-03T10:25:43.029Z,12.63
2022-11-03T10:28:29.148Z,11.43
2022-11-03T10:31:17.544Z,13.35
2022-11-03T10:33:55.984Z,11.35
2022-11-03T10:36:26.973Z,12.30
2022-11-03T10:38:54.533Z,12.45
2022-11-03T10:41:28.130Z,10.82
2022-11-03T10:44:11.432Z,5.82
2022-11-03T10:46:55.798Z,9.63
2022-11-03T10:49:22.757Z,8.05
2022-11-03T10:51:53.259Z,10.48
2022-11-03T10:54:23.390Z,10.20
2022-11-03T10:56:52.021Z,6.57
2022-11-03T10:59:22.725Z,8.77
2022-11-03T11:01:49.813Z,12.63
2022-11-03T11:04:18.683Z,6.82
2022-11-03T11:06:46.697Z,8.90
2022-11-03T11:09:22.859Z,9.65
2022-11-03T11:12:05.353Z,12.63
2022-11-03T11:14:37.976Z,10.35
2022-11-03T11:17:05.451Z,7.07
2022-11-03T11:20:21.464Z,5.90
2022-11-03T11:22:49.937Z,8.18
2022-11-03T11:25:18.882Z,9.07
2022-11-03T11:27:45.663Z,7.70
2022-11-03T11:30:32.324Z,11.48
2022-11-03T11:33:14.906Z,11.27
2022-11-03T11:35:41.662Z,8.57
2022-11-03T11:38:57.059Z,6.28
2022-11-03T11:42:10.977Z,7.55
2022-11-03T11:44:43.579Z,5.68
2022-11-03T11:47:49.758Z,12.15
2022-11-03T11:50:26.001Z,7.30
2022-11-03T11:53:01.665Z,7.07
2022-11-03T11:55:38.103Z,5.10
2022-11-03T11:58:14.394Z,9.38
2022-11-03T12:00:53.299Z,7.47
2022-11-03T12:03:36.789Z,9.00
2022-11-03T12:06:03.940Z,7.30
2022-11-03T12:08:32.654Z,10.13
2022-11-03T12:11:02.890Z,8.70
2022-11-03T12:13:51.344Z,4.85
2022-11-03T12:16:32.826Z,9.88
2022-11-03T12:19:45.201Z,6.47
2022-11-03T12:22:39.289Z,5.70
2022-11-03T12:25:34.225Z,10.52
2022-11-03T12:28:01.056Z,5.25
2022-11-03T12:30:27.903Z,10.30
2022-11-03T12:32:57.869Z,6.10
2022-11-03T12:35:24.747Z,6.32
2022-11-03T12:37:51.879Z,5.80
2022-11-03T12:40:18.921Z,7.65
2022-11-03T12:42:45.815Z,10.43
2022-11-03T12:45:13.768Z,6.47
2022-11-03T12:47:42.476Z,9.15
2022-11-03T12:50:09.862Z,8.48
2022-11-03T12:52:36.785Z,12.95
2022-11-03T12:55:04.627Z,7.47
2022-11-03T12:57:31.561Z,9.88
2022-11-03T12:59:58.435Z,5.25
2022-11-03T13:02:25.480Z,9.93
2022-11-03T13:04:52.443Z,6.35
2022-11-03T13:07:24.224Z,10.25
2022-11-03T13:09:54.690Z,9.27
2022-11-03T13:12:33.951Z,6.78
2022-11-03T13:15:07.299Z,11.70
2022-11-03T13:17:52.018Z,8.95
2022-11-03T13:20:21.327Z,11.55
2022-11-03T13:22:48.179Z,15.73
2022-11-03T13:25:15.075Z,12.77
2022-11-03T13:27:41.975Z,9.00
2022-11-03T13:30:09.849Z,9.98
2022-11-03T13:32:36.726Z,9.13
2022-11-03T13:35:04.552Z,6.55
2022-11-03T13:37:32.374Z,9.32
2022-11-03T13:39:59.227Z,9.07
2022-11-03T13:42:26.073Z,18.27
2022-11-03T13:44:52.981Z,13.50
2022-11-03T13:47:29.868Z,10.90
2022-11-03T13:50:13.996Z,12.05
2022-11-03T13:52:41.996Z,8.77
2022-11-03T14:00:45.272Z,7.93
2022-11-03T14:05:59.025Z,7.30
2022-11-03T14:08:25.867Z,8.75
2022-11-03T14:10:52.801Z,12.93
2022-11-03T14:13:19.738Z,8.27
2022-11-03T14:15:46.635Z,10.93
2022-11-03T14:18:13.472Z,17.70
2022-11-03T14:20:40.301Z,11.23
2022-11-03T14:23:07.256Z,10.07
2022-11-03T14:25:34.258Z,8.18
2022-11-03T14:28:01.236Z,10.25
2022-11-03T14:30:28.115Z,10.52
2022-11-03T14:32:59.369Z,14.02
2022-11-03T14:35:26.619Z,10.60
2022-11-03T14:37:53.435Z,10.63
2022-11-03T14:40:43.119Z,15.52
2022-11-03T14:43:10.301Z,16.95
2022-11-03T14:45:39.871Z,11.13
2022-11-03T14:48:09.776Z,10.75
2022-11-03T14:50:37.174Z,13.50
2022-11-03T14:53:04.044Z,17.02
2022-11-03T14:55:30.881Z,22.73
2022-11-03T14:57:57.849Z,18.52
2022-11-03T15:00:24.713Z,26.90
2022-11-03T15:02:51.580Z,35.97
2022-11-03T15:05:36.928Z,43.55
2022-11-03T15:08:03.925Z,39.60
2022-11-03T15:10:30.885Z,38.60
2022-11-03T15:12:57.710Z,39.85
2022-11-03T15:15:24.539Z,48.30
2022-11-03T15:17:51.405Z,41.88
2022-11-03T15:20:18.378Z,47.10
2022-11-03T15:25:36.022Z,57.92
2022-11-03T15:28:03.300Z,61.17
2022-11-03T15:30:30.219Z,59.78
2022-11-03T15:32:57.676Z,49.45
2022-11-03T15:35:24.719Z,48.72
2022-11-03T15:37:51.890Z,40.85
2022-11-03T15:40:18.716Z,50.25
2022-11-03T15:42:45.642Z,46.00
2022-11-03T15:45:15.239Z,45.50
2022-11-03T15:47:43.399Z,42.80
2022-11-03T15:50:12.059Z,39.57
2022-11-03T15:52:39.485Z,44.63
2022-11-03T15:55:07.953Z,49.70
2022-11-03T15:57:35.194Z,54.23
2022-11-03T16:00:02.764Z,49.43
2022-11-03T16:02:46.277Z,69.23
2022-11-03T16:05:14.469Z,62.93
2022-11-03T16:07:41.496Z,61.47
2022-11-03T16:10:08.885Z,72.07
2022-11-03T16:12:36.288Z,74.80
2022-11-03T16:15:03.583Z,88.10
2022-11-03T16:17:30.466Z,68.93
2022-11-03T16:19:57.350Z,82.23
2022-11-03T16:22:24.227Z,83.10
2022-11-03T16:24:51.144Z,86.07
2022-11-03T16:27:18.043Z,111.33
2022-11-03T16:29:44.991Z,111.00
2022-11-03T16:32:11.921Z,137.57
2022-11-03T16:34:38.808Z,174.77
2022-11-03T16:37:05.689Z,143.40
2022-11-03T16:39:33.429Z,135.87
2022-11-03T16:42:02.109Z,115.50
2022-11-03T16:44:29.393Z,110.30
2022-11-03T16:46:56.278Z,80.33
2022-11-03T16:49:23.206Z,70.00
2022-11-03T16:51:50.097Z,66.87
2022-11-03T16:54:17.024Z,64.33
2022-11-03T16:56:44.399Z,65.80
2022-11-03T16:59:11.447Z,65.23
2022-11-03T17:01:39.156Z,56.97
2022-11-03T17:04:06.181Z,56.70
2022-11-03T17:06:33.060Z,59.17
2022-11-03T17:08:59.997Z,48.13
2022-11-03T17:11:39.429Z,38.13
2022-11-03T17:14:13.411Z,38.03
2022-11-03T17:16:50.233Z,36.80
2022-11-03T17:19:17.330Z,37.13
2022-11-03T17:21:44.262Z,38.20
2022-11-03T17:24:11.418Z,36.93
2022-11-03T17:26:55.794Z,32.73
2022-11-03T17:29:52.990Z,41.07
2022-11-03T17:32:42.838Z,36.87
2022-11-03T17:35:21.732Z,41.67
2022-11-03T17:37:50.117Z,39.47
2022-11-03T17:40:20.596Z,46.20
2022-11-03T17:42:48.387Z,44.53
2022-11-03T17:45:18.294Z,46.47
2022-11-03T17:47:45.498Z,45.67
2022-11-03T17:50:19.223Z,41.53
2022-11-03T17:52:47.722Z,42.23
2022-11-03T17:55:29.399Z,42.27
2022-11-03T17:58:02.057Z,47.07
2022-11-03T18:00:29.570Z,47.67
2022-11-03T18:02:57.385Z,44.67
2022-11-03T18:05:32.210Z,45.57
2022-11-03T18:08:02.218Z,46.63
2022-11-03T18:10:32.860Z,45.43
2022-11-03T18:13:17.332Z,42.57
2022-11-03T18:16:13.867Z,50.70
2022-11-03T18:18:44.274Z,47.70
2022-11-03T18:21:18.154Z,42.63
2022-11-03T18:23:45.393Z,45.53
2022-11-03T18:26:22.353Z,55.70
2022-11-03T18:28:50.543Z,53.57
2022-11-03T18:31:33.795Z,54.77
2022-11-03T18:34:06.267Z,66.63
2022-11-03T18:36:34.298Z,65.13
2022-11-03T18:39:02.548Z,62.97
2022-11-03T18:41:39.064Z,57.27
2022-11-03T18:44:24.218Z,62.97
2022-11-03T18:46:52.721Z,61.43
2022-11-03T18:49:20.181Z,60.00
2022-11-03T18:52:03.363Z,54.97
2022-11-03T18:54:33.062Z,58.60
2022-11-03T18:57:00.832Z,55.50
2022-11-03T18:59:36.018Z,52.67
2022-11-03T19:02:04.320Z,47.20
2022-11-03T19:04:32.228Z,55.13
2022-11-03T19:06:59.397Z,49.67
2022-11-03T19:09:27.127Z,44.83
2022-11-03T19:11:57.345Z,42.53
2022-11-03T19:14:29.436Z,40.20
2022-11-03T19:19:47.096Z,47.73
2022-11-03T19:22:17.681Z,43.07
2022-11-03T19:24:45.543Z,37.80
2022-11-03T19:27:26.151Z,42.60
2022-11-03T19:29:53.817Z,40.27
2022-11-03T19:32:35.761Z,36.63
2022-11-03T19:35:07.925Z,40.50
2022-11-03T19:37:36.109Z,44.53
2022-11-03T19:40:09.297Z,54.93
2022-11-03T19:42:37.041Z,44.07
2022-11-03T19:45:13.585Z,44.17
2022-11-03T19:48:10.616Z,32.23
2022-11-03T19:50:35.285Z,29.10
2022-11-03T19:53:05.872Z,36.00
2022-11-03T19:55:41.514Z,27.80
2022-11-03T19:58:24.044Z,25.90
2022-11-03T20:00:52.439Z,33.37
2022-11-03T20:03:20.201Z,23.57
2022-11-03T20:05:50.032Z,27.73
2022-11-03T20:08:27.148Z,34.97
2022-11-03T20:10:54.216Z,32.23
2022-11-03T20:13:25.121Z,26.77
2022-11-03T20:15:57.295Z,30.10
2022-11-03T20:18:27.389Z,30.20
2022-11-03T20:20:54.477Z,32.47
2022-11-03T20:23:31.036Z,37.13
2022-11-03T20:25:58.639Z,30.53
2022-11-03T20:28:29.639Z,30.27
2022-11-03T20:30:58.049Z,34.93
2022-11-03T20:33:25.729Z,30.47
2022-11-03T20:35:53.902Z,35.40
2022-11-03T20:38:22.766Z,34.17
2022-11-03T20:40:55.737Z,37.07
2022-11-03T20:43:31.567Z,29.90
2022-11-03T20:45:59.329Z,41.37
2022-11-03T20:48:26.339Z,35.43
2022-11-03T20:50:54.390Z,30.07
2022-11-03T20:53:24.125Z,39.63
2022-11-03T20:55:52.442Z,32.77
2022-11-03T20:58:19.596Z,35.27
2022-11-03T21:00:48.509Z,32.43
2022-11-03T21:03:37.929Z,37.37
2022-11-03T21:06:16.697Z,38.33
2022-11-03T21:08:46.175Z,44.40
2022-11-03T21:11:29.380Z,51.60
2022-11-03T21:14:18.064Z,67.70
2022-11-03T21:17:03.310Z,58.53
2022-11-03T21:19:58.350Z,53.57
2022-11-03T21:22:53.690Z,79.83
2022-11-03T21:25:23.209Z,82.60
2022-11-03T21:27:50.548Z,74.47
2022-11-03T21:30:18.440Z,84.33
2022-11-03T21:32:45.529Z,78.03
2022-11-03T21:35:19.735Z,63.63
2022-11-03T21:37:47.183Z,46.20
2022-11-03T21:40:14.239Z,36.63
2022-11-03T21:42:59.547Z,43.53
2022-11-03T21:45:26.946Z,35.87
2022-11-03T21:48:14.342Z,37.60
2022-11-03T21:50:42.787Z,29.47
2022-11-03T21:53:10.962Z,30.33
2022-11-03T21:55:38.545Z,34.10
2022-11-03T21:58:05.564Z,32.03
2022-11-03T22:00:33.260Z,27.63
2022-11-03T22:03:00.783Z,23.03
2022-11-03T22:05:28.055Z,31.27
2022-11-03T22:07:55.024Z,28.43
2022-11-03T22:10:22.350Z,29.87
2022-11-03T22:12:49.445Z,31.83
2022-11-03T22:15:34.868Z,29.63
2022-11-03T22:18:06.860Z,29.73
2022-11-03T22:20:54.504Z,32.43
2022-11-03T22:23:39.837Z,25.83
2022-11-03T22:26:32.046Z,34.03
2022-11-03T22:29:17.881Z,27.00
2022-11-03T22:31:45.250Z,34.70
2022-11-03T22:34:30.506Z,37.93
2022-11-03T22:36:57.393Z,40.97
2022-11-03T22:39:42.710Z,36.53
2022-11-03T22:42:30.757Z,29.00
2022-11-03T22:45:33.366Z,33.93
2022-11-03T22:48:03.124Z,31.30
2022-11-03T22:50:30.136Z,28.03
2022-11-03T22:52:57.277Z,26.67
2022-11-03T22:55:24.235Z,31.93
2022-11-03T22:57:51.248Z,29.13
2022-11-03T23:00:20.379Z,28.63
2022-11-03T23:02:47.267Z,27.53
2022-11-03T23:05:14.222Z,30.70
2022-11-03T23:07:41.822Z,32.17
2022-11-03T23:10:09.118Z,26.23
2022-11-03T23:12:36.082Z,32.43
2022-11-03T23:15:21.351Z,30.77
2022-11-03T23:18:08.150Z,29.13
2022-11-03T23:20:57.096Z,28.93
2022-11-03T23:23:42.361Z,27.90
2022-11-03T23:26:09.520Z,28.50
2022-11-03T23:28:36.580Z,25.97
2022-11-03T23:31:03.474Z,33.40
2022-11-03T23:33:31.864Z,31.27
2022-11-03T23:36:14.138Z,31.03
2022-11-03T23:38:42.412Z,35.13
2022-11-03T23:41:18.727Z,29.13
2022-11-03T23:43:46.414Z,34.17
2022-11-03T23:46:35.788Z,32.53
2022-11-03T23:49:03.138Z,26.87
2022-11-03T23:51:31.682Z,26.10
2022-11-03T23:54:00.041Z,33.50
2022-11-03T23:56:48.563Z,30.63
2022-11-03T23:59:17.370Z,25.97
